TENO2: Tenkiller Lake

Data processed at Fri Jun 05 2020 22:55


All information presented herein is the property of the government of the United States of America and may be revised or deleted at any time without prior notice.
Dissemination of this information without the expressed written consent of the Public Affairs Office, Tulsa District U.S. Army Corps of Engineers is strictly prohibited.
These data are gathered electronically and, as presented, have not undergone any form of quality control. These data are not guaranteed to be valid or correct.
Go to home page.
Go to station list.
Go to home page.

Upstream stations:

Downstream station:
Previous Day
Next Day
Current Day
    
SHEF ID:       TENO2     Tenkiller Lake
STATION TYPE:  Reservoir
Flood Pool:  Bottom =   632.00, Top =   667.00

               PRECIP PRECIP(A) ELEVATION   STORAGE   TW-ELEV    INFLOW   RELEASE  AIR-TEMP  WIND-DIRWIND-SPEED REL-HUMID SOLAR-RAD   VOLTAGE  BAT-LOAD
                   in        in        ft     ac-ft        ft       cfs       cfs         F       deg       mph         %      W/m2      volt      volt
              Ccp-Rev   Ccp-Rev   Ccp-Rev   Ccp-Rev   Ccp-Rev  Rev-Regi  Rev-Regi   Ccp-Rev   Ccp-Rev   Ccp-Rev   Ccp-Rev   Ccp-Rev   Ccp-Rev   Ccp-Rev
(US/Central)
06/05 00:00      0.00      ----    642.29    811118    490.87      2483      9847     70.02    252.00      2.30     58.19      0.00     13.65     12.99
06/05 01:00      0.00      ----    642.26    810675    490.86      2486      9940     69.67    256.70      2.20     63.08      0.00     13.65     12.98
06/05 02:00      0.00      ----    642.22    810085    490.81      2141      9939     68.31    251.90      1.80     62.22      0.00     13.65     12.99
06/05 03:00      0.00      ----    642.17    809348    490.81      3024      9938     68.23    252.00      2.10     65.78      0.00     13.65     12.98
06/05 04:00      0.00      ----    642.13    808758    490.86      2158      9937     67.17    256.20      2.00     60.26      0.00     13.65     12.99
06/05 05:00      0.00      ----    642.10    808315    490.87      2502      9936     66.67    255.20      2.00     62.46      0.00     13.65     12.98
06/05 06:00      0.00      ----    642.04    807430    490.81      2509      9935     67.73    248.90      1.30     71.00      0.00     13.65     12.99
06/05 07:00      0.00      ----    642.01    806987    490.87      2178      9934     67.82    256.50      1.70     63.85      2.10     13.65     12.98
06/05 08:00      0.00      ----    641.96    806254    490.81      2546      9933     69.35    248.20      1.50     57.37    166.70     13.65     12.98
06/05 09:00      0.00      ----    641.91    805520    490.94      2754      9932     75.31    246.20      0.80     55.86    377.80     13.65     12.98
06/05 10:00      0.00      ----    641.89    805227    490.87      2427      9931     79.74    173.60      0.70     43.95    560.50     13.65     12.97
06/05 11:00      0.00      ----    641.84    804494    490.84      2432      9930     83.05    121.40      0.60     41.34    727.40     13.64     12.96
06/05 12:00      0.00      ----    641.80    803908    490.82      2412      9929     84.29    106.80      1.80     33.87    886.30     13.65     12.97
06/05 13:00      0.00      ----    641.75    803175    490.87      1726      9834     84.78    125.60      2.10     24.57    949.10     13.64     12.97
06/05 14:00      0.00      ----    641.70    802442    490.83      2439      9927     85.53    204.80      0.50     28.41    961.30     13.64     12.96
06/05 15:00      0.00      ----    641.66    801855    490.85      2094      9926     83.41    236.00      1.10     32.43    904.00     13.65     12.98
06/05 16:00      0.00      ----    641.63    801415    490.82      3162      9925     84.87    229.70      0.80     29.02    809.00     13.65     12.98
06/05 17:00      0.00      ----    641.58    800682    490.88      3183      9924     85.78    171.60      1.10     24.90    655.40     13.65     12.97
06/05 18:00      0.00      ----    641.56    800389    490.84      3537      9924     85.53    247.90      1.20     26.83    469.00     13.65     13.11
06/05 19:00      0.00      ----    641.51    799656    490.87      3182      9922     80.91    251.90      1.60     36.29    204.90     13.65     12.96
06/05 20:00      0.00      ----    641.48    799216    490.83      3891      9922     76.17    257.30      2.00     43.47     11.00     13.65     12.98
06/05 21:00      0.00      ----    641.44    798630    490.76      2826      9921     72.36    250.20      2.50     53.48      0.00     13.65     12.98
06/05 22:00      ----      ----      ----      ----      ----      ----      ----      ----      ----      ----      ----      ----      ----      ----
06/05 23:00      ----      ----      ----      ----      ----      ----      ----      ----      ----      ----      ----      ----      ----      ----